sensor_id;sensor_type;location;lat;lon;timestamp;P1;durP1;ratioP1;P2;durP2;ratioP2
22622;SDS011;11478;51.094;7.030;2022-09-30T00:01:24;9.85;;;7.20;;
22622;SDS011;11478;51.094;7.030;2022-09-30T00:03:55;10.00;;;6.63;;
22622;SDS011;11478;51.094;7.030;2022-09-30T00:06:22;9.35;;;6.97;;
22622;SDS011;11478;51.094;7.030;2022-09-30T00:08:52;11.35;;;6.95;;
22622;SDS011;11478;51.094;7.030;2022-09-30T00:11:23;9.32;;;6.60;;
22622;SDS011;11478;51.094;7.030;2022-09-30T00:13:51;10.52;;;7.50;;
22622;SDS011;11478;51.094;7.030;2022-09-30T00:16:20;7.20;;;6.20;;
22622;SDS011;11478;51.094;7.030;2022-09-30T00:18:47;11.85;;;8.05;;
22622;SDS011;11478;51.094;7.030;2022-09-30T00:21:14;9.82;;;7.90;;
22622;SDS011;11478;51.094;7.030;2022-09-30T00:23:40;10.20;;;7.53;;
22622;SDS011;11478;51.094;7.030;2022-09-30T00:26:09;10.40;;;7.15;;
22622;SDS011;11478;51.094;7.030;2022-09-30T00:28:37;17.27;;;7.40;;
22622;SDS011;11478;51.094;7.030;2022-09-30T00:31:04;8.60;;;6.10;;
22622;SDS011;11478;51.094;7.030;2022-09-30T00:33:32;9.43;;;6.82;;
22622;SDS011;11478;51.094;7.030;2022-09-30T00:36:01;9.25;;;6.82;;
22622;SDS011;11478;51.094;7.030;2022-09-30T00:38:27;10.88;;;6.70;;
22622;SDS011;11478;51.094;7.030;2022-09-30T00:40:53;8.40;;;6.68;;
22622;SDS011;11478;51.094;7.030;2022-09-30T00:43:39;10.93;;;6.85;;
22622;SDS011;11478;51.094;7.030;2022-09-30T00:46:37;9.55;;;6.40;;
22622;SDS011;11478;51.094;7.030;2022-09-30T00:49:09;7.32;;;5.93;;
22622;SDS011;11478;51.094;7.030;2022-09-30T00:51:40;14.43;;;6.75;;
22622;SDS011;11478;51.094;7.030;2022-09-30T00:54:11;11.20;;;6.80;;
22622;SDS011;11478;51.094;7.030;2022-09-30T00:56:43;14.77;;;7.78;;
22622;SDS011;11478;51.094;7.030;2022-09-30T01:01:48;11.70;;;7.05;;
22622;SDS011;11478;51.094;7.030;2022-09-30T01:04:25;9.00;;;6.85;;
22622;SDS011;11478;51.094;7.030;2022-09-30T01:06:54;7.65;;;6.40;;
22622;SDS011;11478;51.094;7.030;2022-09-30T01:09:25;10.25;;;6.97;;
22622;SDS011;11478;51.094;7.030;2022-09-30T01:11:51;9.32;;;6.50;;
22622;SDS011;11478;51.094;7.030;2022-09-30T01:14:18;7.82;;;6.10;;
22622;SDS011;11478;51.094;7.030;2022-09-30T01:22:25;10.73;;;6.82;;
22622;SDS011;11478;51.094;7.030;2022-09-30T01:30:31;10.70;;;6.85;;
22622;SDS011;11478;51.094;7.030;2022-09-30T01:36:23;8.85;;;6.55;;
22622;SDS011;11478;51.094;7.030;2022-09-30T01:53:44;10.35;;;6.72;;
22622;SDS011;11478;51.094;7.030;2022-09-30T01:56:17;10.38;;;6.32;;
22622;SDS011;11478;51.094;7.030;2022-09-30T02:01:38;10.95;;;6.38;;
22622;SDS011;11478;51.094;7.030;2022-09-30T02:04:16;9.82;;;6.63;;
22622;SDS011;11478;51.094;7.030;2022-09-30T02:13:19;10.48;;;6.82;;
22622;SDS011;11478;51.094;7.030;2022-09-30T02:15:56;11.60;;;6.57;;
22622;SDS011;11478;51.094;7.030;2022-09-30T02:19:00;8.35;;;6.25;;
22622;SDS011;11478;51.094;7.030;2022-09-30T02:21:29;13.00;;;7.65;;
22622;SDS011;11478;51.094;7.030;2022-09-30T02:24:02;9.20;;;6.55;;
22622;SDS011;11478;51.094;7.030;2022-09-30T02:26:38;11.23;;;6.57;;
22622;SDS011;11478;51.094;7.030;2022-09-30T02:31:37;10.00;;;6.97;;
22622;SDS011;11478;51.094;7.030;2022-09-30T02:34:29;8.57;;;7.00;;
22622;SDS011;11478;51.094;7.030;2022-09-30T02:37:09;7.85;;;6.40;;
22622;SDS011;11478;51.094;7.030;2022-09-30T02:42:13;10.88;;;7.22;;
22622;SDS011;11478;51.094;7.030;2022-09-30T02:44:45;12.55;;;7.45;;
22622;SDS011;11478;51.094;7.030;2022-09-30T02:47:14;12.15;;;7.55;;
22622;SDS011;11478;51.094;7.030;2022-09-30T02:50:13;8.15;;;7.18;;
22622;SDS011;11478;51.094;7.030;2022-09-30T02:58:36;11.52;;;6.38;;
22622;SDS011;11478;51.094;7.030;2022-09-30T03:01:05;9.25;;;7.00;;
22622;SDS011;11478;51.094;7.030;2022-09-30T03:03:44;11.88;;;6.70;;
22622;SDS011;11478;51.094;7.030;2022-09-30T03:06:15;8.90;;;6.82;;
22622;SDS011;11478;51.094;7.030;2022-09-30T03:08:57;10.55;;;6.88;;
22622;SDS011;11478;51.094;7.030;2022-09-30T03:11:24;8.88;;;6.40;;
22622;SDS011;11478;51.094;7.030;2022-09-30T03:25:05;7.95;;;6.30;;
22622;SDS011;11478;51.094;7.030;2022-09-30T03:27:56;8.77;;;6.47;;
22622;SDS011;11478;51.094;7.030;2022-09-30T03:31:21;8.18;;;6.53;;
22622;SDS011;11478;51.094;7.030;2022-09-30T03:34:20;8.85;;;6.07;;
22622;SDS011;11478;51.094;7.030;2022-09-30T03:37:09;7.82;;;6.28;;
22622;SDS011;11478;51.094;7.030;2022-09-30T03:45:29;10.00;;;6.75;;
22622;SDS011;11478;51.094;7.030;2022-09-30T03:48:00;6.70;;;6.00;;
22622;SDS011;11478;51.094;7.030;2022-09-30T03:50:29;12.55;;;6.78;;
22622;SDS011;11478;51.094;7.030;2022-09-30T03:52:58;9.27;;;6.50;;
22622;SDS011;11478;51.094;7.030;2022-09-30T03:55:24;13.85;;;6.07;;
22622;SDS011;11478;51.094;7.030;2022-09-30T03:57:51;8.73;;;6.63;;
22622;SDS011;11478;51.094;7.030;2022-09-30T04:00:18;11.13;;;6.40;;
22622;SDS011;11478;51.094;7.030;2022-09-30T04:02:45;8.90;;;6.13;;
22622;SDS011;11478;51.094;7.030;2022-09-30T04:05:10;10.73;;;6.22;;
22622;SDS011;11478;51.094;7.030;2022-09-30T04:07:36;10.70;;;6.30;;
22622;SDS011;11478;51.094;7.030;2022-09-30T04:10:03;11.57;;;6.80;;
22622;SDS011;11478;51.094;7.030;2022-09-30T04:12:29;8.23;;;6.85;;
22622;SDS011;11478;51.094;7.030;2022-09-30T04:14:56;7.50;;;6.40;;
22622;SDS011;11478;51.094;7.030;2022-09-30T04:17:22;9.73;;;7.03;;
22622;SDS011;11478;51.094;7.030;2022-09-30T04:19:48;7.82;;;6.07;;
22622;SDS011;11478;51.094;7.030;2022-09-30T04:22:14;9.52;;;6.45;;
22622;SDS011;11478;51.094;7.030;2022-09-30T04:24:40;9.43;;;6.20;;
22622;SDS011;11478;51.094;7.030;2022-09-30T04:27:07;12.68;;;7.53;;
22622;SDS011;11478;51.094;7.030;2022-09-30T04:29:33;10.70;;;6.65;;
22622;SDS011;11478;51.094;7.030;2022-09-30T04:31:58;10.60;;;6.57;;
22622;SDS011;11478;51.094;7.030;2022-09-30T04:34:24;8.82;;;7.00;;
22622;SDS011;11478;51.094;7.030;2022-09-30T04:36:50;7.20;;;5.97;;
22622;SDS011;11478;51.094;7.030;2022-09-30T04:39:16;11.95;;;6.90;;
22622;SDS011;11478;51.094;7.030;2022-09-30T04:41:42;10.43;;;7.38;;
22622;SDS011;11478;51.094;7.030;2022-09-30T04:44:08;10.15;;;6.47;;
22622;SDS011;11478;51.094;7.030;2022-09-30T04:46:40;12.32;;;7.03;;
22622;SDS011;11478;51.094;7.030;2022-09-30T04:49:10;11.20;;;7.07;;
22622;SDS011;11478;51.094;7.030;2022-09-30T04:51:36;8.23;;;6.70;;
22622;SDS011;11478;51.094;7.030;2022-09-30T04:54:02;8.65;;;6.88;;
22622;SDS011;11478;51.094;7.030;2022-09-30T04:56:28;9.35;;;7.05;;
22622;SDS011;11478;51.094;7.030;2022-09-30T04:58:54;12.35;;;6.40;;
22622;SDS011;11478;51.094;7.030;2022-09-30T05:01:22;9.75;;;6.70;;
22622;SDS011;11478;51.094;7.030;2022-09-30T05:03:48;10.48;;;7.13;;
22622;SDS011;11478;51.094;7.030;2022-09-30T05:06:15;10.23;;;6.57;;
22622;SDS011;11478;51.094;7.030;2022-09-30T05:08:41;10.80;;;7.85;;
22622;SDS011;11478;51.094;7.030;2022-09-30T05:11:13;9.98;;;7.40;;
22622;SDS011;11478;51.094;7.030;2022-09-30T05:13:42;12.15;;;8.02;;
22622;SDS011;11478;51.094;7.030;2022-09-30T05:16:08;11.00;;;8.07;;
22622;SDS011;11478;51.094;7.030;2022-09-30T05:18:35;11.82;;;7.68;;
22622;SDS011;11478;51.094;7.030;2022-09-30T05:21:03;11.77;;;7.85;;
22622;SDS011;11478;51.094;7.030;2022-09-30T05:23:30;10.63;;;7.10;;
22622;SDS011;11478;51.094;7.030;2022-09-30T05:25:59;10.18;;;7.63;;
22622;SDS011;11478;51.094;7.030;2022-09-30T05:28:31;10.63;;;6.75;;
22622;SDS011;11478;51.094;7.030;2022-09-30T05:30:57;14.23;;;8.45;;
22622;SDS011;11478;51.094;7.030;2022-09-30T05:33:33;11.82;;;8.70;;
22622;SDS011;11478;51.094;7.030;2022-09-30T05:36:07;11.80;;;8.18;;
22622;SDS011;11478;51.094;7.030;2022-09-30T05:38:43;16.85;;;9.05;;
22622;SDS011;11478;51.094;7.030;2022-09-30T05:41:10;13.43;;;9.63;;
22622;SDS011;11478;51.094;7.030;2022-09-30T05:43:43;12.65;;;9.02;;
22622;SDS011;11478;51.094;7.030;2022-09-30T05:46:10;12.00;;;8.85;;
22622;SDS011;11478;51.094;7.030;2022-09-30T05:48:36;13.63;;;9.30;;
22622;SDS011;11478;51.094;7.030;2022-09-30T05:51:02;10.27;;;8.50;;
22622;SDS011;11478;51.094;7.030;2022-09-30T05:53:29;13.25;;;9.32;;
22622;SDS011;11478;51.094;7.030;2022-09-30T05:55:56;11.77;;;8.07;;
22622;SDS011;11478;51.094;7.030;2022-09-30T05:58:22;12.88;;;8.80;;
22622;SDS011;11478;51.094;7.030;2022-09-30T06:01:01;13.02;;;9.20;;
22622;SDS011;11478;51.094;7.030;2022-09-30T06:03:33;13.82;;;8.75;;
22622;SDS011;11478;51.094;7.030;2022-09-30T06:06:10;12.95;;;8.52;;
22622;SDS011;11478;51.094;7.030;2022-09-30T06:08:48;13.55;;;8.35;;
22622;SDS011;11478;51.094;7.030;2022-09-30T06:11:49;11.07;;;8.40;;
22622;SDS011;11478;51.094;7.030;2022-09-30T06:14:31;10.85;;;8.10;;
22622;SDS011;11478;51.094;7.030;2022-09-30T06:16:57;12.98;;;8.73;;
22622;SDS011;11478;51.094;7.030;2022-09-30T06:22:32;13.43;;;8.45;;
22622;SDS011;11478;51.094;7.030;2022-09-30T06:25:00;8.95;;;7.75;;
22622;SDS011;11478;51.094;7.030;2022-09-30T06:27:29;10.52;;;7.50;;
22622;SDS011;11478;51.094;7.030;2022-09-30T06:29:57;9.27;;;7.70;;
22622;SDS011;11478;51.094;7.030;2022-09-30T06:32:23;14.55;;;8.77;;
22622;SDS011;11478;51.094;7.030;2022-09-30T06:34:50;10.23;;;8.60;;
22622;SDS011;11478;51.094;7.030;2022-09-30T06:37:20;12.38;;;8.35;;
22622;SDS011;11478;51.094;7.030;2022-09-30T06:39:47;12.18;;;8.98;;
22622;SDS011;11478;51.094;7.030;2022-09-30T06:42:16;14.65;;;10.20;;
22622;SDS011;11478;51.094;7.030;2022-09-30T06:44:42;13.10;;;9.35;;
22622;SDS011;11478;51.094;7.030;2022-09-30T06:47:15;10.30;;;8.60;;
22622;SDS011;11478;51.094;7.030;2022-09-30T06:49:40;12.68;;;8.55;;
22622;SDS011;11478;51.094;7.030;2022-09-30T06:52:08;11.52;;;8.18;;
22622;SDS011;11478;51.094;7.030;2022-09-30T06:54:37;11.60;;;7.78;;
22622;SDS011;11478;51.094;7.030;2022-09-30T06:57:05;12.35;;;8.70;;
22622;SDS011;11478;51.094;7.030;2022-09-30T06:59:31;13.18;;;9.18;;
22622;SDS011;11478;51.094;7.030;2022-09-30T07:01:59;10.68;;;8.48;;
22622;SDS011;11478;51.094;7.030;2022-09-30T07:04:25;11.32;;;8.25;;
22622;SDS011;11478;51.094;7.030;2022-09-30T07:06:51;11.80;;;8.55;;
22622;SDS011;11478;51.094;7.030;2022-09-30T07:09:17;8.93;;;7.85;;
22622;SDS011;11478;51.094;7.030;2022-09-30T07:11:43;8.93;;;8.02;;
22622;SDS011;11478;51.094;7.030;2022-09-30T07:14:08;13.85;;;8.90;;
22622;SDS011;11478;51.094;7.030;2022-09-30T07:19:37;16.38;;;11.43;;
22622;SDS011;11478;51.094;7.030;2022-09-30T07:24:50;10.00;;;7.50;;
22622;SDS011;11478;51.094;7.030;2022-09-30T07:27:29;12.48;;;7.65;;
22622;SDS011;11478;51.094;7.030;2022-09-30T07:29:56;10.02;;;7.07;;
22622;SDS011;11478;51.094;7.030;2022-09-30T07:32:24;9.40;;;6.95;;
22622;SDS011;11478;51.094;7.030;2022-09-30T07:34:50;10.88;;;6.75;;
22622;SDS011;11478;51.094;7.030;2022-09-30T07:37:17;7.43;;;6.63;;
22622;SDS011;11478;51.094;7.030;2022-09-30T07:39:44;12.20;;;7.20;;
22622;SDS011;11478;51.094;7.030;2022-09-30T07:44:47;9.68;;;6.80;;
22622;SDS011;11478;51.094;7.030;2022-09-30T07:47:17;8.50;;;6.97;;
22622;SDS011;11478;51.094;7.030;2022-09-30T07:49:43;8.48;;;6.90;;
22622;SDS011;11478;51.094;7.030;2022-09-30T07:52:14;13.65;;;7.05;;
22622;SDS011;11478;51.094;7.030;2022-09-30T07:54:40;10.98;;;6.68;;
22622;SDS011;11478;51.094;7.030;2022-09-30T07:57:07;8.02;;;7.22;;
22622;SDS011;11478;51.094;7.030;2022-09-30T07:59:34;8.18;;;7.13;;
22622;SDS011;11478;51.094;7.030;2022-09-30T08:02:03;9.70;;;7.15;;
22622;SDS011;11478;51.094;7.030;2022-09-30T08:04:30;10.40;;;7.15;;
22622;SDS011;11478;51.094;7.030;2022-09-30T08:06:57;9.25;;;5.80;;
22622;SDS011;11478;51.094;7.030;2022-09-30T08:09:25;8.13;;;5.40;;
22622;SDS011;11478;51.094;7.030;2022-09-30T08:11:53;7.32;;;4.97;;
22622;SDS011;11478;51.094;7.030;2022-09-30T08:14:21;6.75;;;4.60;;
22622;SDS011;11478;51.094;7.030;2022-09-30T08:16:50;7.03;;;4.60;;
22622;SDS011;11478;51.094;7.030;2022-09-30T08:19:17;6.03;;;4.43;;
22622;SDS011;11478;51.094;7.030;2022-09-30T08:21:45;5.90;;;4.15;;
22622;SDS011;11478;51.094;7.030;2022-09-30T08:24:13;8.90;;;4.60;;
22622;SDS011;11478;51.094;7.030;2022-09-30T08:26:39;8.25;;;5.20;;
22622;SDS011;11478;51.094;7.030;2022-09-30T08:29:06;10.73;;;5.20;;
22622;SDS011;11478;51.094;7.030;2022-09-30T08:31:32;7.63;;;3.97;;
22622;SDS011;11478;51.094;7.030;2022-09-30T08:33:58;6.93;;;3.83;;
22622;SDS011;11478;51.094;7.030;2022-09-30T08:36:25;10.25;;;5.10;;
22622;SDS011;11478;51.094;7.030;2022-09-30T08:38:52;6.72;;;4.72;;
22622;SDS011;11478;51.094;7.030;2022-09-30T08:52:38;6.80;;;3.90;;
22622;SDS011;11478;51.094;7.030;2022-09-30T08:55:17;7.28;;;4.13;;
22622;SDS011;11478;51.094;7.030;2022-09-30T08:57:45;6.03;;;4.03;;
22622;SDS011;11478;51.094;7.030;2022-09-30T09:00:12;8.27;;;4.40;;
22622;SDS011;11478;51.094;7.030;2022-09-30T09:02:50;10.85;;;4.93;;
22622;SDS011;11478;51.094;7.030;2022-09-30T09:10:50;8.85;;;5.75;;
22622;SDS011;11478;51.094;7.030;2022-09-30T09:16:20;12.85;;;4.97;;
22622;SDS011;11478;51.094;7.030;2022-09-30T09:19:21;8.95;;;5.30;;
22622;SDS011;11478;51.094;7.030;2022-09-30T09:21:53;5.30;;;4.18;;
22622;SDS011;11478;51.094;7.030;2022-09-30T09:24:54;6.72;;;4.63;;
22622;SDS011;11478;51.094;7.030;2022-09-30T09:27:20;6.75;;;5.03;;
22622;SDS011;11478;51.094;7.030;2022-09-30T09:30:08;8.45;;;5.40;;
22622;SDS011;11478;51.094;7.030;2022-09-30T09:32:49;8.55;;;5.25;;
22622;SDS011;11478;51.094;7.030;2022-09-30T09:47:04;9.63;;;5.30;;
22622;SDS011;11478;51.094;7.030;2022-09-30T09:52:32;8.50;;;4.88;;
22622;SDS011;11478;51.094;7.030;2022-09-30T09:54:44;9.57;;;4.90;;
22622;SDS011;11478;51.094;7.030;2022-09-30T10:02:26;8.07;;;5.13;;
22622;SDS011;11478;51.094;7.030;2022-09-30T10:04:54;7.10;;;5.20;;
22622;SDS011;11478;51.094;7.030;2022-09-30T10:07:29;9.35;;;5.85;;
22622;SDS011;11478;51.094;7.030;2022-09-30T10:12:44;8.70;;;6.00;;
22622;SDS011;11478;51.094;7.030;2022-09-30T10:15:24;13.70;;;8.70;;
22622;SDS011;11478;51.094;7.030;2022-09-30T10:17:54;10.60;;;6.45;;
22622;SDS011;11478;51.094;7.030;2022-09-30T10:20:31;8.48;;;6.68;;
22622;SDS011;11478;51.094;7.030;2022-09-30T10:23:07;10.75;;;6.90;;
22622;SDS011;11478;51.094;7.030;2022-09-30T10:37:06;9.27;;;5.70;;
22622;SDS011;11478;51.094;7.030;2022-09-30T10:39:40;18.25;;;6.40;;
22622;SDS011;11478;51.094;7.030;2022-09-30T10:42:11;9.55;;;5.00;;
22622;SDS011;11478;51.094;7.030;2022-09-30T10:44:52;7.95;;;5.10;;
22622;SDS011;11478;51.094;7.030;2022-09-30T10:47:21;6.72;;;4.55;;
22622;SDS011;11478;51.094;7.030;2022-09-30T10:49:55;8.52;;;5.97;;
22622;SDS011;11478;51.094;7.030;2022-09-30T10:52:32;8.88;;;5.40;;
22622;SDS011;11478;51.094;7.030;2022-09-30T10:55:04;11.52;;;5.60;;
22622;SDS011;11478;51.094;7.030;2022-09-30T10:57:50;9.93;;;5.18;;
22622;SDS011;11478;51.094;7.030;2022-09-30T11:00:22;9.57;;;4.32;;
22622;SDS011;11478;51.094;7.030;2022-09-30T11:02:55;9.95;;;5.10;;
22622;SDS011;11478;51.094;7.030;2022-09-30T11:05:44;9.27;;;5.03;;
22622;SDS011;11478;51.094;7.030;2022-09-30T11:14:15;8.52;;;4.25;;
22622;SDS011;11478;51.094;7.030;2022-09-30T11:17:27;6.95;;;4.65;;
22622;SDS011;11478;51.094;7.030;2022-09-30T11:28:46;6.28;;;3.78;;
22622;SDS011;11478;51.094;7.030;2022-09-30T12:01:52;11.18;;;4.53;;
22622;SDS011;11478;51.094;7.030;2022-09-30T12:04:37;8.07;;;4.38;;
22622;SDS011;11478;51.094;7.030;2022-09-30T12:09:57;5.57;;;3.70;;
22622;SDS011;11478;51.094;7.030;2022-09-30T12:12:25;11.75;;;4.80;;
22622;SDS011;11478;51.094;7.030;2022-09-30T12:14:58;9.68;;;3.90;;
22622;SDS011;11478;51.094;7.030;2022-09-30T12:17:38;7.53;;;4.68;;
22622;SDS011;11478;51.094;7.030;2022-09-30T12:20:28;7.63;;;3.58;;
22622;SDS011;11478;51.094;7.030;2022-09-30T12:23:16;7.95;;;4.20;;
22622;SDS011;11478;51.094;7.030;2022-09-30T12:25:58;7.93;;;3.10;;
22622;SDS011;11478;51.094;7.030;2022-09-30T12:46:07;6.25;;;2.75;;
22622;SDS011;11478;51.094;7.030;2022-09-30T12:49:05;7.95;;;3.60;;
22622;SDS011;11478;51.094;7.030;2022-09-30T12:51:43;8.48;;;3.30;;
22622;SDS011;11478;51.094;7.030;2022-09-30T12:54:25;6.35;;;3.70;;
22622;SDS011;11478;51.094;7.030;2022-09-30T12:56:57;6.97;;;3.92;;
22622;SDS011;11478;51.094;7.030;2022-09-30T12:59:28;7.30;;;3.85;;
22622;SDS011;11478;51.094;7.030;2022-09-30T13:01:58;8.63;;;4.20;;
22622;SDS011;11478;51.094;7.030;2022-09-30T13:04:38;7.15;;;4.03;;
22622;SDS011;11478;51.094;7.030;2022-09-30T13:15:41;5.57;;;3.00;;
22622;SDS011;11478;51.094;7.030;2022-09-30T13:20:50;8.93;;;3.03;;
22622;SDS011;11478;51.094;7.030;2022-09-30T13:34:24;7.20;;;2.30;;
22622;SDS011;11478;51.094;7.030;2022-09-30T13:36:58;4.35;;;2.13;;
22622;SDS011;11478;51.094;7.030;2022-09-30T13:40:02;5.20;;;1.92;;
22622;SDS011;11478;51.094;7.030;2022-09-30T13:42:30;3.28;;;1.80;;
22622;SDS011;11478;51.094;7.030;2022-09-30T13:45:06;3.80;;;2.05;;
22622;SDS011;11478;51.094;7.030;2022-09-30T13:48:04;4.85;;;1.98;;
22622;SDS011;11478;51.094;7.030;2022-09-30T13:50:36;6.95;;;2.08;;
22622;SDS011;11478;51.094;7.030;2022-09-30T13:55:50;4.90;;;2.10;;
22622;SDS011;11478;51.094;7.030;2022-09-30T14:07:07;5.47;;;1.80;;
22622;SDS011;11478;51.094;7.030;2022-09-30T14:21:09;3.97;;;1.58;;
22622;SDS011;11478;51.094;7.030;2022-09-30T14:24:00;3.58;;;1.50;;
22622;SDS011;11478;51.094;7.030;2022-09-30T14:29:05;2.80;;;1.00;;
22622;SDS011;11478;51.094;7.030;2022-09-30T14:31:44;3.35;;;1.20;;
22622;SDS011;11478;51.094;7.030;2022-09-30T14:34:18;4.00;;;1.40;;
22622;SDS011;11478;51.094;7.030;2022-09-30T14:36:49;2.08;;;1.27;;
22622;SDS011;11478;51.094;7.030;2022-09-30T14:39:39;3.03;;;1.17;;
22622;SDS011;11478;51.094;7.030;2022-09-30T14:42:09;3.22;;;1.40;;
22622;SDS011;11478;51.094;7.030;2022-09-30T14:44:45;3.00;;;1.27;;
22622;SDS011;11478;51.094;7.030;2022-09-30T14:47:17;2.45;;;1.08;;
22622;SDS011;11478;51.094;7.030;2022-09-30T14:49:44;4.28;;;1.20;;
22622;SDS011;11478;51.094;7.030;2022-09-30T14:57:54;1.77;;;0.93;;
22622;SDS011;11478;51.094;7.030;2022-09-30T15:00:41;2.05;;;1.17;;
22622;SDS011;11478;51.094;7.030;2022-09-30T15:03:12;3.60;;;1.25;;
22622;SDS011;11478;51.094;7.030;2022-09-30T15:05:38;1.80;;;1.42;;
22622;SDS011;11478;51.094;7.030;2022-09-30T15:08:09;2.70;;;1.40;;
22622;SDS011;11478;51.094;7.030;2022-09-30T15:10:46;1.90;;;1.30;;
22622;SDS011;11478;51.094;7.030;2022-09-30T15:29:04;3.72;;;1.23;;
22622;SDS011;11478;51.094;7.030;2022-09-30T15:34:31;3.83;;;1.20;;
22622;SDS011;11478;51.094;7.030;2022-09-30T15:36:59;2.17;;;1.15;;
22622;SDS011;11478;51.094;7.030;2022-09-30T15:39:57;2.70;;;1.20;;
22622;SDS011;11478;51.094;7.030;2022-09-30T15:43:28;2.72;;;1.20;;
22622;SDS011;11478;51.094;7.030;2022-09-30T15:46:14;4.43;;;1.20;;
22622;SDS011;11478;51.094;7.030;2022-09-30T15:52:39;1.50;;;1.05;;
22622;SDS011;11478;51.094;7.030;2022-09-30T16:06:33;2.95;;;1.48;;
22622;SDS011;11478;51.094;7.030;2022-09-30T16:14:41;2.60;;;1.45;;
22622;SDS011;11478;51.094;7.030;2022-09-30T16:17:17;3.00;;;1.38;;
22622;SDS011;11478;51.094;7.030;2022-09-30T16:20:20;3.50;;;1.50;;
22622;SDS011;11478;51.094;7.030;2022-09-30T16:30:27;5.63;;;1.50;;
22622;SDS011;11478;51.094;7.030;2022-09-30T16:32:55;3.50;;;1.60;;
22622;SDS011;11478;51.094;7.030;2022-09-30T16:35:27;5.70;;;1.50;;
22622;SDS011;11478;51.094;7.030;2022-09-30T16:38:11;2.88;;;1.70;;
22622;SDS011;11478;51.094;7.030;2022-09-30T16:40:39;5.30;;;1.55;;
22622;SDS011;11478;51.094;7.030;2022-09-30T16:43:12;4.00;;;1.80;;
22622;SDS011;11478;51.094;7.030;2022-09-30T16:45:50;3.50;;;1.90;;
22622;SDS011;11478;51.094;7.030;2022-09-30T16:48:17;3.47;;;2.03;;
22622;SDS011;11478;51.094;7.030;2022-09-30T16:50:56;2.08;;;1.67;;
22622;SDS011;11478;51.094;7.030;2022-09-30T16:53:37;3.78;;;1.80;;
22622;SDS011;11478;51.094;7.030;2022-09-30T16:56:23;4.00;;;1.80;;
22622;SDS011;11478;51.094;7.030;2022-09-30T16:58:50;7.10;;;2.00;;
22622;SDS011;11478;51.094;7.030;2022-09-30T17:01:21;6.75;;;1.70;;
22622;SDS011;11478;51.094;7.030;2022-09-30T17:03:48;5.90;;;2.00;;
22622;SDS011;11478;51.094;7.030;2022-09-30T17:06:15;3.75;;;1.65;;
22622;SDS011;11478;51.094;7.030;2022-09-30T17:08:49;4.90;;;1.77;;
22622;SDS011;11478;51.094;7.030;2022-09-30T17:11:18;3.65;;;1.75;;
22622;SDS011;11478;51.094;7.030;2022-09-30T17:13:44;5.07;;;2.10;;
22622;SDS011;11478;51.094;7.030;2022-09-30T17:16:11;3.03;;;1.90;;
22622;SDS011;11478;51.094;7.030;2022-09-30T17:18:37;3.92;;;1.90;;
22622;SDS011;11478;51.094;7.030;2022-09-30T17:21:05;4.57;;;2.10;;
22622;SDS011;11478;51.094;7.030;2022-09-30T17:23:30;4.53;;;2.00;;
22622;SDS011;11478;51.094;7.030;2022-09-30T17:25:56;4.63;;;2.05;;
22622;SDS011;11478;51.094;7.030;2022-09-30T17:28:23;4.88;;;2.17;;
22622;SDS011;11478;51.094;7.030;2022-09-30T17:30:49;6.55;;;2.20;;
22622;SDS011;11478;51.094;7.030;2022-09-30T17:33:15;5.47;;;2.28;;
22622;SDS011;11478;51.094;7.030;2022-09-30T17:38:39;4.80;;;2.17;;
22622;SDS011;11478;51.094;7.030;2022-09-30T17:41:11;5.32;;;2.40;;
22622;SDS011;11478;51.094;7.030;2022-09-30T17:43:57;6.78;;;2.70;;
22622;SDS011;11478;51.094;7.030;2022-09-30T17:46:43;4.38;;;2.30;;
22622;SDS011;11478;51.094;7.030;2022-09-30T17:49:10;6.97;;;2.20;;
22622;SDS011;11478;51.094;7.030;2022-09-30T17:54:06;3.92;;;1.90;;
22622;SDS011;11478;51.094;7.030;2022-09-30T17:56:32;4.07;;;2.22;;
22622;SDS011;11478;51.094;7.030;2022-09-30T17:58:58;2.97;;;2.10;;
22622;SDS011;11478;51.094;7.030;2022-09-30T18:01:29;4.10;;;2.15;;
22622;SDS011;11478;51.094;7.030;2022-09-30T18:03:58;5.65;;;2.17;;
22622;SDS011;11478;51.094;7.030;2022-09-30T18:06:25;5.45;;;2.20;;
22622;SDS011;11478;51.094;7.030;2022-09-30T18:08:52;3.58;;;2.55;;
22622;SDS011;11478;51.094;7.030;2022-09-30T18:11:19;2.38;;;1.92;;
22622;SDS011;11478;51.094;7.030;2022-09-30T18:13:53;6.85;;;2.30;;
22622;SDS011;11478;51.094;7.030;2022-09-30T18:16:23;4.35;;;2.40;;
22622;SDS011;11478;51.094;7.030;2022-09-30T18:18:58;3.92;;;2.25;;
22622;SDS011;11478;51.094;7.030;2022-09-30T18:21:25;6.68;;;2.20;;
22622;SDS011;11478;51.094;7.030;2022-09-30T18:23:52;3.97;;;2.45;;
22622;SDS011;11478;51.094;7.030;2022-09-30T18:31:24;5.45;;;2.60;;
22622;SDS011;11478;51.094;7.030;2022-09-30T18:34:00;4.88;;;2.33;;
22622;SDS011;11478;51.094;7.030;2022-09-30T18:36:29;10.60;;;3.00;;
22622;SDS011;11478;51.094;7.030;2022-09-30T18:38:57;5.50;;;3.10;;
22622;SDS011;11478;51.094;7.030;2022-09-30T18:41:24;12.00;;;3.10;;
22622;SDS011;11478;51.094;7.030;2022-09-30T18:43:51;7.72;;;3.08;;
22622;SDS011;11478;51.094;7.030;2022-09-30T18:46:21;7.72;;;3.22;;
22622;SDS011;11478;51.094;7.030;2022-09-30T18:48:47;5.88;;;3.15;;
22622;SDS011;11478;51.094;7.030;2022-09-30T18:51:14;10.52;;;3.38;;
22622;SDS011;11478;51.094;7.030;2022-09-30T18:53:42;4.95;;;3.35;;
22622;SDS011;11478;51.094;7.030;2022-09-30T18:56:09;5.43;;;3.58;;
22622;SDS011;11478;51.094;7.030;2022-09-30T18:58:35;7.90;;;3.42;;
22622;SDS011;11478;51.094;7.030;2022-09-30T19:01:03;6.20;;;3.33;;
22622;SDS011;11478;51.094;7.030;2022-09-30T19:03:30;4.63;;;3.30;;
22622;SDS011;11478;51.094;7.030;2022-09-30T19:05:57;4.40;;;3.13;;
22622;SDS011;11478;51.094;7.030;2022-09-30T19:08:29;4.88;;;3.38;;
22622;SDS011;11478;51.094;7.030;2022-09-30T19:11:09;7.20;;;3.95;;
22622;SDS011;11478;51.094;7.030;2022-09-30T19:13:43;6.45;;;3.75;;
22622;SDS011;11478;51.094;7.030;2022-09-30T19:16:15;8.50;;;3.72;;
22622;SDS011;11478;51.094;7.030;2022-09-30T19:18:42;5.55;;;3.70;;
22622;SDS011;11478;51.094;7.030;2022-09-30T19:21:11;8.25;;;3.60;;
22622;SDS011;11478;51.094;7.030;2022-09-30T19:23:40;6.30;;;3.70;;
22622;SDS011;11478;51.094;7.030;2022-09-30T19:26:13;5.20;;;3.15;;
22622;SDS011;11478;51.094;7.030;2022-09-30T19:28:40;5.07;;;3.50;;
22622;SDS011;11478;51.094;7.030;2022-09-30T19:31:09;8.25;;;3.60;;
22622;SDS011;11478;51.094;7.030;2022-09-30T19:33:41;4.95;;;3.20;;
22622;SDS011;11478;51.094;7.030;2022-09-30T19:36:13;8.82;;;4.18;;
22622;SDS011;11478;51.094;7.030;2022-09-30T19:38:40;9.30;;;3.72;;
22622;SDS011;11478;51.094;7.030;2022-09-30T19:41:09;6.53;;;3.50;;
22622;SDS011;11478;51.094;7.030;2022-09-30T19:43:36;5.97;;;3.15;;
22622;SDS011;11478;51.094;7.030;2022-09-30T19:46:05;8.65;;;3.70;;
22622;SDS011;11478;51.094;7.030;2022-09-30T19:48:33;7.10;;;3.53;;
22622;SDS011;11478;51.094;7.030;2022-09-30T19:51:01;8.02;;;3.88;;
22622;SDS011;11478;51.094;7.030;2022-09-30T19:53:35;6.93;;;3.28;;
22622;SDS011;11478;51.094;7.030;2022-09-30T19:56:04;5.20;;;3.40;;
22622;SDS011;11478;51.094;7.030;2022-09-30T19:58:33;10.57;;;3.95;;
22622;SDS011;11478;51.094;7.030;2022-09-30T20:01:01;4.78;;;3.75;;
22622;SDS011;11478;51.094;7.030;2022-09-30T20:03:40;5.72;;;3.80;;
22622;SDS011;11478;51.094;7.030;2022-09-30T20:06:07;8.88;;;3.80;;
22622;SDS011;11478;51.094;7.030;2022-09-30T20:08:38;9.40;;;4.22;;
22622;SDS011;11478;51.094;7.030;2022-09-30T20:11:11;7.72;;;4.38;;
22622;SDS011;11478;51.094;7.030;2022-09-30T20:13:52;9.07;;;4.00;;
22622;SDS011;11478;51.094;7.030;2022-09-30T20:16:38;9.50;;;4.65;;
22622;SDS011;11478;51.094;7.030;2022-09-30T20:21:49;7.50;;;4.30;;
22622;SDS011;11478;51.094;7.030;2022-09-30T20:26:48;7.85;;;4.20;;
22622;SDS011;11478;51.094;7.030;2022-09-30T20:29:15;10.60;;;4.90;;